createdAt,value
2023-03-16T00:00:54.876Z,7.63
2023-03-16T00:03:32.031Z,8.50
2023-03-16T00:06:03.228Z,7.45
2023-03-16T00:08:38.423Z,7.65
2023-03-16T00:11:11.049Z,8.15
2023-03-16T00:14:00.602Z,8.13
2023-03-16T00:16:34.908Z,8.25
2023-03-16T00:19:15.120Z,6.57
2023-03-16T00:21:44.036Z,7.35
2023-03-16T00:24:33.362Z,7.65
2023-03-16T00:27:02.285Z,8.25
2023-03-16T00:29:36.133Z,7.82
2023-03-16T00:32:15.517Z,7.80
2023-03-16T00:34:50.621Z,7.20
2023-03-16T00:37:34.376Z,7.72
2023-03-16T00:40:03.174Z,7.95
2023-03-16T00:45:40.635Z,7.50
2023-03-16T00:48:15.624Z,7.88
2023-03-16T00:51:14.325Z,7.50
2023-03-16T00:53:52.709Z,7.50
2023-03-16T00:56:21.974Z,7.47
2023-03-16T00:58:51.836Z,7.43
2023-03-16T01:01:35.094Z,6.35
2023-03-16T01:04:21.778Z,7.03
2023-03-16T01:07:04.077Z,6.95
2023-03-16T01:09:32.208Z,7.07
2023-03-16T01:12:07.513Z,7.03
2023-03-16T01:14:41.754Z,7.43
2023-03-16T01:17:16.839Z,7.00
2023-03-16T01:23:03.829Z,7.20
2023-03-16T01:25:33.673Z,7.95
2023-03-16T01:28:01.450Z,8.05
2023-03-16T01:30:34.798Z,7.68
2023-03-16T01:33:03.565Z,7.55
2023-03-16T01:35:31.306Z,7.78
2023-03-16T01:38:16.732Z,9.43
2023-03-16T01:40:57.313Z,8.48
2023-03-16T01:43:32.998Z,8.60
2023-03-16T01:46:06.763Z,7.57
2023-03-16T01:48:50.194Z,7.25
2023-03-16T01:51:34.212Z,7.68
2023-03-16T01:54:20.281Z,7.57
2023-03-16T01:56:57.152Z,7.68
2023-03-16T01:59:55.794Z,7.60
2023-03-16T02:02:32.423Z,7.43
2023-03-16T02:05:24.569Z,7.60
2023-03-16T02:08:15.058Z,6.70
2023-03-16T02:10:46.505Z,7.65
2023-03-16T02:15:55.057Z,7.53
2023-03-16T02:18:46.017Z,7.18
2023-03-16T02:24:27.333Z,7.70
2023-03-16T02:27:11.880Z,7.65
2023-03-16T02:30:08.806Z,6.97
2023-03-16T02:32:45.677Z,7.57
2023-03-16T02:35:14.308Z,7.25
2023-03-16T02:38:05.135Z,7.60
2023-03-16T02:40:36.622Z,7.05
2023-03-16T02:45:55.687Z,8.38
2023-03-16T02:48:48.628Z,7.10
2023-03-16T02:51:27.530Z,6.82
2023-03-16T02:54:14.255Z,7.47
2023-03-16T02:57:15.986Z,7.05
2023-03-16T02:59:54.463Z,6.50
2023-03-16T03:02:34.567Z,8.15
2023-03-16T03:05:08.830Z,8.93
2023-03-16T03:11:30.050Z,8.18
2023-03-16T03:14:00.134Z,7.95
2023-03-16T03:16:41.203Z,9.18
2023-03-16T03:19:21.484Z,8.02
2023-03-16T03:21:49.354Z,7.55
2023-03-16T03:24:20.076Z,7.75
2023-03-16T03:26:51.275Z,7.85
2023-03-16T03:29:20.761Z,8.20
2023-03-16T03:31:48.816Z,7.47
2023-03-16T03:34:19.085Z,7.75
2023-03-16T03:36:54.967Z,7.30
2023-03-16T03:39:48.408Z,7.75
2023-03-16T03:42:31.384Z,7.40
2023-03-16T03:44:59.248Z,8.38
2023-03-16T03:47:27.356Z,8.07
2023-03-16T03:50:00.314Z,8.68
2023-03-16T03:52:35.407Z,9.18
2023-03-16T03:55:07.679Z,8.63
2023-03-16T03:57:45.523Z,7.75
2023-03-16T04:00:16.006Z,8.05
2023-03-16T04:02:54.313Z,7.50
2023-03-16T04:05:23.715Z,8.10
2023-03-16T04:08:02.005Z,21.92
2023-03-16T04:11:05.429Z,20.38
2023-03-16T04:13:35.443Z,19.48
2023-03-16T04:16:19.576Z,14.02
2023-03-16T04:19:07.408Z,11.23
2023-03-16T04:21:38.484Z,11.68
2023-03-16T04:24:16.455Z,10.73
2023-03-16T04:26:48.410Z,10.95
2023-03-16T04:29:19.275Z,11.55
2023-03-16T04:31:52.324Z,11.38
2023-03-16T04:34:46.896Z,12.10
2023-03-16T04:37:23.985Z,11.13
2023-03-16T04:40:27.669Z,11.15
2023-03-16T04:43:24.192Z,11.65
2023-03-16T04:46:11.598Z,12.63
2023-03-16T04:48:54.301Z,11.52
2023-03-16T04:51:22.762Z,12.73
2023-03-16T04:54:09.287Z,11.90
2023-03-16T04:56:42.749Z,12.45
2023-03-16T04:59:40.481Z,12.05
2023-03-16T05:02:15.506Z,10.60
2023-03-16T05:05:00.832Z,10.68
2023-03-16T05:07:48.620Z,9.48
2023-03-16T05:10:25.984Z,9.55
2023-03-16T05:12:54.383Z,9.82
2023-03-16T05:15:34.449Z,8.95
2023-03-16T05:18:13.404Z,8.63
2023-03-16T05:21:04.379Z,8.82
2023-03-16T05:23:53.059Z,9.77
2023-03-16T05:26:27.147Z,9.80
2023-03-16T05:28:59.485Z,9.23
2023-03-16T05:31:30.938Z,9.27
2023-03-16T05:37:05.624Z,9.48
2023-03-16T05:42:55.781Z,9.38
2023-03-16T05:45:24.850Z,9.57
2023-03-16T05:47:58.812Z,9.75
2023-03-16T05:50:27.795Z,9.27
2023-03-16T05:56:08.911Z,9.07
2023-03-16T05:58:38.231Z,9.98
2023-03-16T06:01:07.436Z,11.32
2023-03-16T06:03:38.028Z,10.30
2023-03-16T06:06:23.762Z,10.07
2023-03-16T06:08:51.927Z,10.40
2023-03-16T06:11:26.135Z,9.25
2023-03-16T06:14:10.251Z,9.88
2023-03-16T06:17:03.126Z,9.75
2023-03-16T06:19:50.308Z,9.43
2023-03-16T06:22:21.205Z,10.00
2023-03-16T06:24:54.160Z,10.20
2023-03-16T06:27:27.714Z,9.75
2023-03-16T06:30:00.816Z,10.15
2023-03-16T06:32:30.933Z,10.32
2023-03-16T06:35:17.274Z,10.15
2023-03-16T06:37:47.091Z,10.35
2023-03-16T06:40:18.426Z,11.55
2023-03-16T06:42:47.667Z,11.30
2023-03-16T06:45:26.872Z,10.60
2023-03-16T06:47:55.011Z,10.70
2023-03-16T06:50:45.096Z,10.73
2023-03-16T06:53:12.872Z,10.52
2023-03-16T06:55:57.986Z,11.02
2023-03-16T06:58:38.567Z,9.70
2023-03-16T07:01:13.793Z,12.13
2023-03-16T07:03:41.778Z,10.23
2023-03-16T07:06:10.802Z,11.20
2023-03-16T07:08:41.670Z,11.07
2023-03-16T07:11:09.832Z,11.00
2023-03-16T07:13:47.080Z,11.70
2023-03-16T07:16:15.282Z,11.38
2023-03-16T07:18:56.467Z,10.88
2023-03-16T07:21:33.328Z,10.45
2023-03-16T07:24:01.424Z,10.52
2023-03-16T07:26:30.474Z,10.88
2023-03-16T07:29:00.053Z,10.52
2023-03-16T07:31:36.033Z,9.80
2023-03-16T07:34:05.136Z,10.45
2023-03-16T07:36:40.319Z,9.98
2023-03-16T07:39:26.832Z,10.70
2023-03-16T07:41:54.845Z,9.52
2023-03-16T07:44:23.009Z,10.35
2023-03-16T07:47:11.061Z,9.88
2023-03-16T07:49:49.383Z,10.18
2023-03-16T07:52:17.516Z,10.38
2023-03-16T07:54:53.578Z,10.50
2023-03-16T07:57:30.943Z,9.50
2023-03-16T08:00:04.292Z,9.90
2023-03-16T08:02:35.807Z,9.55
2023-03-16T08:05:20.931Z,9.48
2023-03-16T08:07:55.036Z,8.60
2023-03-16T08:10:28.669Z,9.40
2023-03-16T08:12:58.833Z,9.55
2023-03-16T08:16:16.984Z,10.18
2023-03-16T08:18:54.809Z,9.00
2023-03-16T08:21:53.118Z,9.60
2023-03-16T08:24:34.957Z,8.93
2023-03-16T08:27:11.192Z,8.52
2023-03-16T08:29:55.455Z,9.05
2023-03-16T08:32:23.400Z,9.05
2023-03-16T08:34:55.417Z,8.77
2023-03-16T08:37:34.441Z,8.27
2023-03-16T08:40:02.380Z,7.78
2023-03-16T08:42:32.671Z,7.60
2023-03-16T08:45:13.772Z,7.93
2023-03-16T08:47:45.333Z,7.47
2023-03-16T08:50:28.050Z,7.70
2023-03-16T08:52:56.025Z,7.93
2023-03-16T08:55:25.729Z,7.68
2023-03-16T08:57:53.851Z,7.55
2023-03-16T09:00:30.244Z,6.32
2023-03-16T09:03:06.606Z,8.13
2023-03-16T09:05:45.981Z,7.50
2023-03-16T09:08:25.532Z,7.78
2023-03-16T09:10:56.448Z,7.75
2023-03-16T09:13:24.208Z,7.22
2023-03-16T09:16:00.823Z,6.75
2023-03-16T09:18:29.845Z,7.25
2023-03-16T09:21:02.575Z,6.32
2023-03-16T09:23:43.003Z,6.85
2023-03-16T09:26:13.664Z,6.50
2023-03-16T09:28:52.222Z,6.37
2023-03-16T09:31:39.634Z,6.10
2023-03-16T09:34:10.602Z,5.75
2023-03-16T09:36:38.653Z,5.82
2023-03-16T09:39:10.115Z,5.80
2023-03-16T09:44:12.145Z,5.45
2023-03-16T09:46:44.871Z,5.43
2023-03-16T09:49:13.963Z,5.22
2023-03-16T09:52:00.739Z,4.85
2023-03-16T09:54:52.384Z,5.63
2023-03-16T09:57:42.623Z,5.00
2023-03-16T10:03:23.330Z,5.15
2023-03-16T10:06:14.797Z,4.55
2023-03-16T10:12:01.398Z,4.38
2023-03-16T10:14:39.440Z,4.88
2023-03-16T10:17:36.892Z,4.80
2023-03-16T10:20:30.159Z,4.88
2023-03-16T10:23:18.302Z,4.70
2023-03-16T10:25:57.158Z,4.45
2023-03-16T10:28:41.197Z,4.47
2023-03-16T10:31:12.204Z,4.05
2023-03-16T10:33:46.878Z,4.55
2023-03-16T10:36:35.854Z,4.05
2023-03-16T10:39:05.132Z,4.28
2023-03-16T10:41:47.074Z,4.57
2023-03-16T10:44:33.379Z,4.47
2023-03-16T10:47:06.074Z,4.65
2023-03-16T10:50:04.407Z,5.55
2023-03-16T10:52:37.644Z,5.38
2023-03-16T10:55:12.857Z,4.93
2023-03-16T10:57:44.483Z,3.85
2023-03-16T11:00:22.151Z,3.78
2023-03-16T11:02:50.909Z,3.65
2023-03-16T11:05:36.360Z,4.03
2023-03-16T11:08:04.119Z,3.58
2023-03-16T11:10:46.105Z,3.53
2023-03-16T11:13:22.424Z,3.70
2023-03-16T11:16:32.457Z,3.95
2023-03-16T11:19:06.044Z,4.45
2023-03-16T11:21:40.178Z,4.65
2023-03-16T11:24:13.354Z,4.22
2023-03-16T11:26:42.073Z,3.85
2023-03-16T11:29:23.400Z,4.10
2023-03-16T11:32:22.332Z,3.50
2023-03-16T11:34:56.153Z,3.80
2023-03-16T11:37:43.878Z,3.58
2023-03-16T11:40:21.375Z,4.05
2023-03-16T11:43:15.640Z,4.60
2023-03-16T11:46:03.095Z,3.92
2023-03-16T11:48:37.812Z,3.78
2023-03-16T11:51:08.825Z,4.00
2023-03-16T11:56:52.012Z,3.60
2023-03-16T12:00:01.019Z,3.88
2023-03-16T12:02:48.760Z,3.75
2023-03-16T12:05:36.754Z,3.47
2023-03-16T12:11:21.810Z,3.13
2023-03-16T12:14:04.272Z,3.55
2023-03-16T12:16:48.717Z,3.47
2023-03-16T12:19:23.422Z,3.97
2023-03-16T12:22:05.556Z,3.25
2023-03-16T12:24:37.580Z,3.65
2023-03-16T12:27:08.581Z,3.10
2023-03-16T12:29:58.423Z,3.63
2023-03-16T12:32:57.464Z,3.10
2023-03-16T12:35:35.234Z,3.63
2023-03-16T12:38:25.392Z,4.15
2023-03-16T12:41:22.886Z,3.70
2023-03-16T12:43:56.827Z,3.33
2023-03-16T12:46:39.817Z,8.75
2023-03-16T12:49:08.961Z,4.03
2023-03-16T12:52:01.448Z,3.35
2023-03-16T12:54:40.700Z,2.90
2023-03-16T12:57:09.802Z,2.90
2023-03-16T12:59:46.986Z,3.65
2023-03-16T13:02:20.960Z,2.65
2023-03-16T13:04:57.323Z,3.15
2023-03-16T13:07:30.104Z,2.70
2023-03-16T13:10:07.141Z,2.90
2023-03-16T13:12:49.530Z,2.88
2023-03-16T13:16:01.622Z,2.65
2023-03-16T13:18:35.311Z,2.78
2023-03-16T13:21:14.886Z,2.88
2023-03-16T13:24:04.976Z,2.65
2023-03-16T13:26:33.702Z,2.60
2023-03-16T13:29:02.111Z,2.60
2023-03-16T13:31:44.382Z,2.60
2023-03-16T13:34:33.306Z,2.40
2023-03-16T13:37:03.954Z,2.60
2023-03-16T13:39:39.034Z,2.95
2023-03-16T13:42:09.899Z,2.50
2023-03-16T13:44:41.472Z,2.70
2023-03-16T13:47:21.947Z,2.30
2023-03-16T13:49:55.405Z,2.03
2023-03-16T13:52:28.519Z,2.47
2023-03-16T13:55:14.897Z,2.47
2023-03-16T13:57:47.771Z,2.10
2023-03-16T14:00:29.052Z,2.20
2023-03-16T14:03:01.376Z,2.20
2023-03-16T14:05:34.437Z,1.92
2023-03-16T14:08:06.398Z,2.33
2023-03-16T14:10:39.507Z,2.35
2023-03-16T14:13:24.039Z,3.28
2023-03-16T14:16:01.732Z,2.40
2023-03-16T14:18:48.825Z,2.38
2023-03-16T14:21:19.524Z,2.17
2023-03-16T14:23:58.268Z,1.90
2023-03-16T14:26:26.621Z,2.63
2023-03-16T14:29:07.522Z,2.67
2023-03-16T14:31:37.288Z,2.22
2023-03-16T14:34:23.957Z,2.45
2023-03-16T14:36:55.725Z,1.90
2023-03-16T14:39:28.693Z,2.13
2023-03-16T14:41:59.493Z,2.03
2023-03-16T14:44:30.400Z,1.80
2023-03-16T14:47:00.542Z,2.10
2023-03-16T14:49:37.715Z,2.25
2023-03-16T14:52:29.270Z,1.65
2023-03-16T14:57:34.166Z,2.20
2023-03-16T15:00:03.689Z,1.70
2023-03-16T15:02:34.170Z,1.77
2023-03-16T15:05:02.908Z,2.30
2023-03-16T15:07:39.171Z,1.73
2023-03-16T15:10:14.570Z,2.22
2023-03-16T15:12:55.184Z,2.25
2023-03-16T15:15:25.241Z,1.70
2023-03-16T15:18:23.139Z,1.98
2023-03-16T15:21:11.533Z,2.00
2023-03-16T15:23:49.009Z,1.45
2023-03-16T15:26:29.275Z,1.85
2023-03-16T15:29:02.507Z,1.60
2023-03-16T15:31:34.633Z,2.05
2023-03-16T15:34:02.502Z,1.40
2023-03-16T15:36:35.496Z,2.00
2023-03-16T15:39:03.482Z,1.60
2023-03-16T15:41:47.466Z,1.67
2023-03-16T15:44:15.767Z,1.85
2023-03-16T15:46:47.762Z,1.40
2023-03-16T15:49:28.459Z,1.75
2023-03-16T15:52:34.338Z,1.85
2023-03-16T15:55:30.394Z,2.03
2023-03-16T15:58:07.863Z,1.73
2023-03-16T16:00:37.828Z,2.05
2023-03-16T16:03:08.004Z,1.77
2023-03-16T16:05:54.191Z,1.88
2023-03-16T16:08:39.346Z,1.90
2023-03-16T16:11:14.300Z,1.80
2023-03-16T16:13:49.006Z,2.20
2023-03-16T16:16:19.072Z,1.75
2023-03-16T16:18:47.793Z,1.90
2023-03-16T16:21:24.544Z,1.85
2023-03-16T16:24:07.011Z,2.13
2023-03-16T16:26:50.874Z,1.70
2023-03-16T16:29:35.479Z,1.88
2023-03-16T16:32:04.684Z,2.35
2023-03-16T16:34:33.125Z,1.90
2023-03-16T16:37:20.249Z,1.63
2023-03-16T16:39:53.863Z,1.50
2023-03-16T16:42:22.142Z,1.67
2023-03-16T16:44:50.093Z,1.88
2023-03-16T16:47:24.916Z,1.85
2023-03-16T16:50:01.222Z,2.00
2023-03-16T16:52:45.685Z,2.05
2023-03-16T16:55:38.133Z,2.08
2023-03-16T16:58:12.368Z,2.25
2023-03-16T17:00:48.387Z,2.05
2023-03-16T17:03:25.334Z,2.22
2023-03-16T17:05:59.726Z,2.10
2023-03-16T17:08:35.288Z,1.92
2023-03-16T17:11:22.139Z,2.05
2023-03-16T17:13:55.254Z,2.20
2023-03-16T17:16:27.959Z,1.77
2023-03-16T17:18:56.756Z,2.10
2023-03-16T17:21:27.376Z,2.00
2023-03-16T17:24:06.436Z,2.00
2023-03-16T17:26:35.719Z,2.15
2023-03-16T17:29:11.632Z,2.33
2023-03-16T17:31:44.055Z,2.15
2023-03-16T17:34:19.355Z,2.40
2023-03-16T17:37:03.291Z,2.10
2023-03-16T17:39:57.341Z,2.58
2023-03-16T17:42:49.398Z,2.90
2023-03-16T17:45:18.499Z,3.45
2023-03-16T17:47:58.749Z,2.67
2023-03-16T17:50:59.575Z,2.70
2023-03-16T17:53:50.238Z,2.55
2023-03-16T17:56:20.300Z,2.63
2023-03-16T17:58:49.131Z,3.22
2023-03-16T18:01:36.269Z,2.72
2023-03-16T18:04:28.685Z,3.05
2023-03-16T18:07:01.757Z,3.33
2023-03-16T18:09:42.832Z,3.38
2023-03-16T18:12:39.911Z,3.28
2023-03-16T18:15:23.357Z,3.40
2023-03-16T18:21:04.919Z,2.92
2023-03-16T18:23:35.178Z,3.08
2023-03-16T18:26:04.953Z,3.10
2023-03-16T18:28:52.688Z,2.80
2023-03-16T18:31:29.163Z,3.10
2023-03-16T18:34:03.853Z,3.38
2023-03-16T18:37:00.841Z,2.95
2023-03-16T18:39:35.783Z,3.20
2023-03-16T18:42:30.865Z,3.28
2023-03-16T18:44:58.638Z,3.47
2023-03-16T18:47:48.212Z,3.00
2023-03-16T18:50:20.544Z,3.00
2023-03-16T18:52:50.759Z,2.88
2023-03-16T18:55:32.836Z,3.92
2023-03-16T18:58:07.862Z,2.58
2023-03-16T19:00:35.951Z,3.00
2023-03-16T19:03:04.880Z,3.13
2023-03-16T19:05:37.218Z,2.85
2023-03-16T19:08:07.635Z,3.60
2023-03-16T19:10:40.455Z,2.50
2023-03-16T19:13:16.004Z,2.95
2023-03-16T19:15:44.868Z,3.33
2023-03-16T19:18:13.077Z,3.20
2023-03-16T19:21:15.463Z,3.30
2023-03-16T19:24:10.729Z,2.90
2023-03-16T19:26:40.838Z,3.15
2023-03-16T19:29:14.557Z,3.10
2023-03-16T19:31:43.020Z,3.03
2023-03-16T19:34:18.069Z,3.30
2023-03-16T19:36:47.194Z,3.25
2023-03-16T19:39:22.064Z,3.40
2023-03-16T19:42:03.529Z,3.33
2023-03-16T19:44:33.454Z,3.30
2023-03-16T19:47:26.240Z,3.42
2023-03-16T19:49:56.493Z,3.58
2023-03-16T19:52:32.428Z,3.50
2023-03-16T19:55:03.656Z,3.63
2023-03-16T19:57:42.951Z,3.08
2023-03-16T20:00:35.932Z,3.30
2023-03-16T20:03:04.848Z,7.30
2023-03-16T20:05:40.868Z,4.45
2023-03-16T20:08:19.208Z,3.58
2023-03-16T20:11:06.027Z,3.25
2023-03-16T20:13:38.658Z,3.15
2023-03-16T20:16:07.998Z,3.30
2023-03-16T20:18:55.307Z,2.92
2023-03-16T20:21:28.696Z,3.08
2023-03-16T20:24:00.920Z,3.70
2023-03-16T20:26:33.109Z,3.15
2023-03-16T20:29:03.100Z,3.90
2023-03-16T20:31:43.658Z,3.30
2023-03-16T20:34:26.164Z,3.30
2023-03-16T20:36:54.251Z,2.78
2023-03-16T20:39:24.693Z,3.13
2023-03-16T20:41:55.816Z,3.63
2023-03-16T20:44:30.765Z,3.17
2023-03-16T20:47:14.929Z,3.40
2023-03-16T20:49:44.987Z,3.53
2023-03-16T20:52:18.162Z,3.47
2023-03-16T20:54:56.454Z,3.38
2023-03-16T20:57:33.692Z,3.33
2023-03-16T21:00:01.822Z,3.70
2023-03-16T21:02:33.279Z,3.83
2023-03-16T21:07:41.252Z,3.97
2023-03-16T21:10:10.055Z,3.55
2023-03-16T21:12:57.285Z,3.83
2023-03-16T21:15:31.829Z,3.60
2023-03-16T21:18:21.773Z,4.38
2023-03-16T21:20:52.966Z,3.47
2023-03-16T21:23:22.006Z,4.28
2023-03-16T21:26:01.953Z,3.53
2023-03-16T21:28:33.755Z,3.92
2023-03-16T21:31:04.199Z,3.67
2023-03-16T21:33:50.870Z,3.90
2023-03-16T21:36:19.987Z,3.97
2023-03-16T21:38:57.099Z,3.53
2023-03-16T21:41:29.045Z,3.60
2023-03-16T21:44:00.761Z,3.63
2023-03-16T21:46:36.251Z,4.30
2023-03-16T21:49:11.317Z,5.00
2023-03-16T21:52:06.946Z,4.60
2023-03-16T21:54:45.932Z,4.03
2023-03-16T21:57:30.925Z,4.40
2023-03-16T22:03:47.966Z,4.75
2023-03-16T22:06:30.804Z,4.60
2023-03-16T22:09:31.163Z,4.70
2023-03-16T22:12:22.181Z,5.57
2023-03-16T22:14:56.211Z,4.18
2023-03-16T22:17:37.196Z,4.32
2023-03-16T22:20:17.124Z,5.07
2023-03-16T22:22:49.645Z,4.20
2023-03-16T22:25:22.771Z,4.88
2023-03-16T22:27:52.291Z,4.90
2023-03-16T22:30:26.770Z,4.63
2023-03-16T22:33:19.490Z,3.75
2023-03-16T22:36:07.006Z,4.15
2023-03-16T22:38:37.729Z,3.90
2023-03-16T22:41:22.121Z,4.18
2023-03-16T22:43:55.491Z,4.38
2023-03-16T22:46:31.338Z,3.67
2023-03-16T22:49:09.528Z,3.75
2023-03-16T22:51:48.087Z,4.25
2023-03-16T22:54:19.059Z,3.70
2023-03-16T22:56:48.999Z,4.07
2023-03-16T22:59:36.018Z,4.28
2023-03-16T23:02:04.008Z,3.78
2023-03-16T23:04:40.294Z,4.10
2023-03-16T23:07:15.300Z,3.47
2023-03-16T23:09:54.591Z,4.60
2023-03-16T23:12:24.513Z,4.07
2023-03-16T23:14:58.531Z,4.25
2023-03-16T23:17:28.698Z,4.15
2023-03-16T23:19:57.702Z,3.72
2023-03-16T23:22:29.333Z,3.97
2023-03-16T23:25:35.280Z,4.10
2023-03-16T23:28:04.742Z,3.80
2023-03-16T23:30:41.234Z,3.47
2023-03-16T23:33:24.877Z,3.22
2023-03-16T23:39:30.217Z,3.45
2023-03-16T23:42:19.639Z,3.45
2023-03-16T23:44:47.316Z,3.25
2023-03-16T23:47:21.893Z,3.17
2023-03-16T23:49:59.349Z,3.22
2023-03-16T23:52:33.396Z,3.10
2023-03-16T23:55:11.423Z,3.08
2023-03-16T23:57:52.450Z,3.30
